Terminal Aerodrome Forecast
Issued by NWS Cleveland, OH

Home | Current Version | Previous Version | Graphics & Text | Print | Product List | Glossary On
Versions: 1 2 3 4 5 6 7 8 9 10 11 12 13 14 15 16 17 18 19 20 21
000
FTUS41 KCLE 251000 AAA
TAFMFD
TAF AMD
KMFD 251003Z 2510/2606 13005KT P6SM FEW035 BKN250
     FM251400 15006KT P6SM SCT030
     FM260400 18005KT P6SM FEW045 SCT100=

USA.gov is the U.S. government's official web portal to all federal, state and local government web resources and services.